Allen, KS (66833)

11:36 PM CDT on July 25, 2014 (GMT -0500)
Timmerman School Area (KKSEMPOR4) Elev 1214 ft | 38.43 °N, 96.22 °W | Change Station
Active Advisory: Heat Advisory

Current weather conditions updated 40 seconds ago

Clear
Clear
84.2 °F
Feels Like 92 °F
N
10.3
Wind Variable Wind from South
Gusts 15.0 mph

Tomorrow is forecast to be nearly the same temperature as today.

Today
High -- | Low -- °F
--% Chance of Precip.
Yesterday
High -- | Low -- °F
Precip. -- in
6:20 AM 8:41 PM
Waning Crescent, 1% visible
Pressure 29.79 in
Visibility 10.0 miles
Clouds Clear
Heat Index 92 °F
Dew Point 75 °F
Humidity 73%
Rainfall 0.00 in
Snow Depth Not available.
UV 0 out of 12
Pollen 7.10 out of 12
Air Quality Not available.
Flu Activity Not available.
METAR KEMP 260353Z AUTO 18016G22KT 10SM CLR 28/23 A2983 RMK AO2 SLP088 T02830228

More Conditions Fewer Conditions

Pressure 29.79 in
Visibility 10.0 miles
Clouds Clear
Heat Index 92 °F
Dew Point 75 °F
Humidity 73%
Rainfall 0.00 in
Snow Depth Not available.
UV 0 out of 12
Pollen 7.10 out of 12
Air Quality Not available.
Flu Activity Not available.
METAR KEMP 260353Z AUTO 18016G22KT 10SM CLR 28/23 A2983 RMK AO2 SLP088 T02830228

More Conditions Fewer Conditions

10-Day Weather Forecast

Almanac

Astronomy

Jul. 25, 2014 Rise Set
Actual Time 6:20 AM CDT 8:41 PM CDT
Civil Twilight 5:50 AM CDT 9:12 PM CDT
Nautical Twilight 5:13 AM CDT 9:49 PM CDT
Astronomical Twilight 4:32 AM CDT 10:29 PM CDT
Moon 5:20 AM CDT (7/25) 7:40 PM CDT (7/25)
Length of Visible Light 15h 21m
Length of Day
14h 21m
Tomorrow will be 1m 41s shorter.
Waning Crescent, 1% of the Moon is Illuminated
Jul 26
Waning Crescent
Jul 26
New
Aug 3
First Quarter
Aug 10
Full
Aug 17
Last Quarter

Yesterday's Extremes

State Highs State Lows

Community

WunderPhotos

Upload Photos

1,737,517 photos uploaded!

Nearby

Snow Depth

Station Depth Elevation
No new snow has been reported.

Earthquake Activity

City Distance Mag. Time & Date
Harper, Kansas 134 miles 3.3 7:24 AM CDT
2014-07-20
Harper, Kansas 134 miles 3.0 7:24 PM CDT
2014-07-19
Minimum magnitude displayed is 2.5.

Coastal Water Temperatures

Place Temperature
No Stations Reporting

Nearby Weather Stations

Station Location Temp. Heat Index Dew Point Humidity Wind Precip. Elev Updated Type
Timmerman School Area, Emporia, KS 84.2 °F 92 °F 75 °F 73% South  at  10.3 mph 0.00 in / hr 1214 ft 11:36 PM CDT Rapid Fire
East Emporia Kansas, Emporia, KS 83.7 °F 89 °F 72 °F 67% WSW  at  6.8 mph - / hr 1106 ft 11:27 PM CDT Normal
RAWS TALLGRASS PRAIRIE KS, Strong City, KS 85 °F 90 °F 71 °F 63% SE  at  10 mph 0.00 in / hr 1230 ft 10:30 PM CDT MADIS
MesoWest VOLLND , Alma, KS 89 °F 86 °F - - North  at  - 0.00 in / hr 1110 ft 9:10 PM CDT MADIS
MesoWest DWIGHT , Dwight, KS 84 °F 81 °F - - North  at  - 0.00 in / hr 1443 ft 10:30 PM CDT MADIS
Skydive Kansas, Osage City, KS 86.7 °F 91 °F 69 °F 56% SSW  at  11.9 mph 0.00 in / hr 1089 ft 12:36 AM EDT Rapid Fire

Show More Stations Show Fewer Stations